Skinner Lake, Indiana
Current Conditions -  °F | °C
As of 10:55 AM on Thursday 23 Oct 2014 (Local Time) from KGWB Reporting Station
Haze Haze  
Wind Chill: 43°   Ceiling: Unl
Heat Index: 43°   Visibility: 5mi
Dew Point: 41°   Wind: 3mph
Humidity: 93%   Direction: 250°WSW
Pressure: 30.27"   Gusts: NA
Location:  41.3469°N, 85.4059°W
Report Text: KGWB 231455Z AUTO 25003KT 5SM BR SCT001 06/05 A3027 RMK AO2
Loading
Personal Weather Stations






























Interactive Weather Map
Tropical Storm Tracking
New forecast layout! Learn more

10-Day Weather Forecast

Advertisements
Track Severe Weather on mobile